sensor_id;sensor_type;location;lat;lon;timestamp;P1;durP1;ratioP1;P2;durP2;ratioP2
61471;SDS011;47337;54.068;12.114;2022-12-29T00:00:05;4.20;;;2.75;;
61471;SDS011;47337;54.068;12.114;2022-12-29T00:02:32;4.68;;;3.15;;
61471;SDS011;47337;54.068;12.114;2022-12-29T00:04:57;4.82;;;3.10;;
61471;SDS011;47337;54.068;12.114;2022-12-29T00:07:23;4.88;;;2.65;;
61471;SDS011;47337;54.068;12.114;2022-12-29T00:09:48;5.47;;;3.05;;
61471;SDS011;47337;54.068;12.114;2022-12-29T00:12:14;4.25;;;2.60;;
61471;SDS011;47337;54.068;12.114;2022-12-29T00:14:42;4.22;;;2.88;;
61471;SDS011;47337;54.068;12.114;2022-12-29T00:17:26;3.97;;;3.05;;
61471;SDS011;47337;54.068;12.114;2022-12-29T00:19:51;5.07;;;3.30;;
61471;SDS011;47337;54.068;12.114;2022-12-29T00:22:35;6.07;;;2.88;;
61471;SDS011;47337;54.068;12.114;2022-12-29T00:25:19;5.68;;;2.97;;
61471;SDS011;47337;54.068;12.114;2022-12-29T00:28:04;6.93;;;3.25;;
61471;SDS011;47337;54.068;12.114;2022-12-29T00:30:48;5.53;;;3.15;;
61471;SDS011;47337;54.068;12.114;2022-12-29T00:33:33;5.07;;;3.30;;
61471;SDS011;47337;54.068;12.114;2022-12-29T00:36:24;4.40;;;3.60;;
61471;SDS011;47337;54.068;12.114;2022-12-29T00:39:02;5.10;;;3.25;;
61471;SDS011;47337;54.068;12.114;2022-12-29T00:41:51;4.32;;;3.28;;
61471;SDS011;47337;54.068;12.114;2022-12-29T00:44:35;6.38;;;2.97;;
61471;SDS011;47337;54.068;12.114;2022-12-29T00:47:00;8.02;;;3.25;;
61471;SDS011;47337;54.068;12.114;2022-12-29T00:49:29;4.95;;;3.53;;
61471;SDS011;47337;54.068;12.114;2022-12-29T00:51:57;5.97;;;3.40;;
61471;SDS011;47337;54.068;12.114;2022-12-29T00:54:30;4.18;;;3.10;;
61471;SDS011;47337;54.068;12.114;2022-12-29T00:57:01;5.75;;;3.83;;
61471;SDS011;47337;54.068;12.114;2022-12-29T00:59:27;4.97;;;3.10;;
61471;SDS011;47337;54.068;12.114;2022-12-29T01:01:53;4.70;;;2.90;;
61471;SDS011;47337;54.068;12.114;2022-12-29T01:04:20;5.45;;;3.10;;
61471;SDS011;47337;54.068;12.114;2022-12-29T01:06:49;8.60;;;3.30;;
61471;SDS011;47337;54.068;12.114;2022-12-29T01:09:15;5.05;;;3.50;;
61471;SDS011;47337;54.068;12.114;2022-12-29T01:12:00;7.10;;;3.70;;
61471;SDS011;47337;54.068;12.114;2022-12-29T01:14:28;4.45;;;3.55;;
61471;SDS011;47337;54.068;12.114;2022-12-29T01:16:57;6.60;;;3.50;;
61471;SDS011;47337;54.068;12.114;2022-12-29T01:19:23;6.38;;;3.20;;
61471;SDS011;47337;54.068;12.114;2022-12-29T01:21:51;5.60;;;3.42;;
61471;SDS011;47337;54.068;12.114;2022-12-29T01:24:17;6.53;;;3.60;;
61471;SDS011;47337;54.068;12.114;2022-12-29T01:26:46;4.72;;;3.42;;
61471;SDS011;47337;54.068;12.114;2022-12-29T01:29:12;4.70;;;3.30;;
61471;SDS011;47337;54.068;12.114;2022-12-29T01:31:38;10.23;;;5.90;;
61471;SDS011;47337;54.068;12.114;2022-12-29T01:34:04;6.53;;;4.75;;
61471;SDS011;47337;54.068;12.114;2022-12-29T01:36:30;5.82;;;3.45;;
61471;SDS011;47337;54.068;12.114;2022-12-29T01:38:55;5.72;;;3.72;;
61471;SDS011;47337;54.068;12.114;2022-12-29T01:41:21;5.63;;;4.13;;
61471;SDS011;47337;54.068;12.114;2022-12-29T01:43:50;4.70;;;3.20;;
61471;SDS011;47337;54.068;12.114;2022-12-29T01:46:38;6.47;;;4.38;;
61471;SDS011;47337;54.068;12.114;2022-12-29T01:49:16;8.85;;;3.85;;
61471;SDS011;47337;54.068;12.114;2022-12-29T01:51:46;7.32;;;4.13;;
61471;SDS011;47337;54.068;12.114;2022-12-29T01:54:22;7.35;;;3.70;;
61471;SDS011;47337;54.068;12.114;2022-12-29T01:56:56;5.63;;;4.00;;
61471;SDS011;47337;54.068;12.114;2022-12-29T01:59:25;6.30;;;4.32;;
61471;SDS011;47337;54.068;12.114;2022-12-29T02:04:23;4.55;;;4.00;;
61471;SDS011;47337;54.068;12.114;2022-12-29T02:06:53;6.70;;;4.22;;
61471;SDS011;47337;54.068;12.114;2022-12-29T02:09:22;7.38;;;3.97;;
61471;SDS011;47337;54.068;12.114;2022-12-29T02:11:51;5.50;;;3.97;;
61471;SDS011;47337;54.068;12.114;2022-12-29T02:14:17;6.72;;;3.85;;
61471;SDS011;47337;54.068;12.114;2022-12-29T02:22:09;5.03;;;4.22;;
61471;SDS011;47337;54.068;12.114;2022-12-29T02:24:50;5.13;;;4.00;;
61471;SDS011;47337;54.068;12.114;2022-12-29T02:27:43;6.07;;;3.70;;
61471;SDS011;47337;54.068;12.114;2022-12-29T02:35:42;5.70;;;3.60;;
61471;SDS011;47337;54.068;12.114;2022-12-29T02:43:51;6.05;;;4.20;;
61471;SDS011;47337;54.068;12.114;2022-12-29T02:48:55;6.10;;;3.83;;
61471;SDS011;47337;54.068;12.114;2022-12-29T02:51:37;5.75;;;3.70;;
61471;SDS011;47337;54.068;12.114;2022-12-29T02:54:09;8.00;;;3.78;;
61471;SDS011;47337;54.068;12.114;2022-12-29T02:56:53;4.90;;;3.20;;
61471;SDS011;47337;54.068;12.114;2022-12-29T02:59:19;9.57;;;3.88;;
61471;SDS011;47337;54.068;12.114;2022-12-29T03:10:14;4.70;;;3.35;;
61471;SDS011;47337;54.068;12.114;2022-12-29T03:13:02;5.32;;;3.47;;
61471;SDS011;47337;54.068;12.114;2022-12-29T03:16:11;4.47;;;3.08;;
61471;SDS011;47337;54.068;12.114;2022-12-29T03:19:02;5.00;;;3.35;;
61471;SDS011;47337;54.068;12.114;2022-12-29T03:21:39;3.78;;;3.28;;
61471;SDS011;47337;54.068;12.114;2022-12-29T03:24:28;5.40;;;3.20;;
61471;SDS011;47337;54.068;12.114;2022-12-29T03:27:01;4.85;;;2.97;;
61471;SDS011;47337;54.068;12.114;2022-12-29T03:29:29;4.78;;;3.17;;
61471;SDS011;47337;54.068;12.114;2022-12-29T03:31:58;3.65;;;2.83;;
61471;SDS011;47337;54.068;12.114;2022-12-29T03:34:25;6.90;;;3.38;;
61471;SDS011;47337;54.068;12.114;2022-12-29T03:36:55;4.82;;;3.20;;
61471;SDS011;47337;54.068;12.114;2022-12-29T03:39:26;5.28;;;3.03;;
61471;SDS011;47337;54.068;12.114;2022-12-29T03:41:54;5.97;;;3.17;;
61471;SDS011;47337;54.068;12.114;2022-12-29T03:44:33;4.95;;;2.97;;
61471;SDS011;47337;54.068;12.114;2022-12-29T03:47:01;4.35;;;3.00;;
61471;SDS011;47337;54.068;12.114;2022-12-29T03:49:27;3.83;;;2.90;;
61471;SDS011;47337;54.068;12.114;2022-12-29T03:51:57;5.50;;;3.20;;
61471;SDS011;47337;54.068;12.114;2022-12-29T03:54:23;3.95;;;2.92;;
61471;SDS011;47337;54.068;12.114;2022-12-29T03:56:48;4.13;;;2.72;;
61471;SDS011;47337;54.068;12.114;2022-12-29T03:59:16;5.47;;;2.60;;
61471;SDS011;47337;54.068;12.114;2022-12-29T04:01:41;3.88;;;2.97;;
61471;SDS011;47337;54.068;12.114;2022-12-29T04:04:07;2.83;;;2.28;;
61471;SDS011;47337;54.068;12.114;2022-12-29T04:06:34;4.55;;;2.40;;
61471;SDS011;47337;54.068;12.114;2022-12-29T04:09:00;3.03;;;2.10;;
61471;SDS011;47337;54.068;12.114;2022-12-29T04:11:26;4.65;;;2.47;;
61471;SDS011;47337;54.068;12.114;2022-12-29T04:13:53;4.28;;;2.28;;
61471;SDS011;47337;54.068;12.114;2022-12-29T04:16:19;4.35;;;2.80;;
61471;SDS011;47337;54.068;12.114;2022-12-29T04:18:44;4.53;;;2.60;;
61471;SDS011;47337;54.068;12.114;2022-12-29T04:21:09;3.30;;;2.10;;
61471;SDS011;47337;54.068;12.114;2022-12-29T04:23:36;3.30;;;2.30;;
61471;SDS011;47337;54.068;12.114;2022-12-29T04:26:03;3.20;;;2.08;;
61471;SDS011;47337;54.068;12.114;2022-12-29T04:28:32;3.75;;;2.22;;
61471;SDS011;47337;54.068;12.114;2022-12-29T04:30:57;3.25;;;2.00;;
61471;SDS011;47337;54.068;12.114;2022-12-29T04:33:22;3.92;;;2.00;;
61471;SDS011;47337;54.068;12.114;2022-12-29T04:35:48;2.80;;;1.83;;
61471;SDS011;47337;54.068;12.114;2022-12-29T04:38:13;2.47;;;1.90;;
61471;SDS011;47337;54.068;12.114;2022-12-29T04:40:40;2.65;;;2.03;;
61471;SDS011;47337;54.068;12.114;2022-12-29T04:43:07;3.92;;;1.80;;
61471;SDS011;47337;54.068;12.114;2022-12-29T04:45:33;2.55;;;1.80;;
61471;SDS011;47337;54.068;12.114;2022-12-29T04:47:59;7.32;;;1.98;;
61471;SDS011;47337;54.068;12.114;2022-12-29T04:50:24;2.42;;;1.75;;
61471;SDS011;47337;54.068;12.114;2022-12-29T04:52:50;3.30;;;1.85;;
61471;SDS011;47337;54.068;12.114;2022-12-29T04:55:18;2.03;;;1.70;;
61471;SDS011;47337;54.068;12.114;2022-12-29T04:57:46;2.35;;;1.70;;
61471;SDS011;47337;54.068;12.114;2022-12-29T05:00:11;3.20;;;1.50;;
61471;SDS011;47337;54.068;12.114;2022-12-29T05:02:38;3.38;;;1.67;;
61471;SDS011;47337;54.068;12.114;2022-12-29T05:05:04;2.55;;;1.63;;
61471;SDS011;47337;54.068;12.114;2022-12-29T05:07:30;1.70;;;1.42;;
61471;SDS011;47337;54.068;12.114;2022-12-29T05:09:55;2.58;;;1.30;;
61471;SDS011;47337;54.068;12.114;2022-12-29T05:12:23;4.90;;;1.90;;
61471;SDS011;47337;54.068;12.114;2022-12-29T05:14:48;2.63;;;1.73;;
61471;SDS011;47337;54.068;12.114;2022-12-29T05:17:13;4.55;;;1.80;;
61471;SDS011;47337;54.068;12.114;2022-12-29T05:19:39;4.43;;;1.88;;
61471;SDS011;47337;54.068;12.114;2022-12-29T05:22:06;2.20;;;1.40;;
61471;SDS011;47337;54.068;12.114;2022-12-29T05:24:32;4.20;;;2.13;;
61471;SDS011;47337;54.068;12.114;2022-12-29T05:27:00;4.70;;;1.58;;
61471;SDS011;47337;54.068;12.114;2022-12-29T05:29:25;2.30;;;1.88;;
61471;SDS011;47337;54.068;12.114;2022-12-29T05:31:50;3.97;;;1.80;;
61471;SDS011;47337;54.068;12.114;2022-12-29T05:34:16;3.80;;;1.77;;
61471;SDS011;47337;54.068;12.114;2022-12-29T05:36:41;1.70;;;1.30;;
61471;SDS011;47337;54.068;12.114;2022-12-29T05:39:07;2.17;;;1.40;;
61471;SDS011;47337;54.068;12.114;2022-12-29T05:41:37;2.03;;;1.75;;
61471;SDS011;47337;54.068;12.114;2022-12-29T05:44:02;3.63;;;1.50;;
61471;SDS011;47337;54.068;12.114;2022-12-29T05:46:28;1.77;;;1.52;;
61471;SDS011;47337;54.068;12.114;2022-12-29T05:48:53;1.40;;;1.17;;
61471;SDS011;47337;54.068;12.114;2022-12-29T05:51:19;1.95;;;1.40;;
61471;SDS011;47337;54.068;12.114;2022-12-29T05:53:44;1.67;;;1.40;;
61471;SDS011;47337;54.068;12.114;2022-12-29T05:56:10;2.00;;;1.33;;
61471;SDS011;47337;54.068;12.114;2022-12-29T05:58:37;2.22;;;1.38;;
61471;SDS011;47337;54.068;12.114;2022-12-29T06:01:05;2.00;;;1.48;;
61471;SDS011;47337;54.068;12.114;2022-12-29T06:03:30;1.75;;;1.30;;
61471;SDS011;47337;54.068;12.114;2022-12-29T06:05:56;1.38;;;1.10;;
61471;SDS011;47337;54.068;12.114;2022-12-29T06:08:21;3.97;;;1.38;;
61471;SDS011;47337;54.068;12.114;2022-12-29T06:10:47;1.75;;;1.30;;
61471;SDS011;47337;54.068;12.114;2022-12-29T06:13:14;1.77;;;1.10;;
61471;SDS011;47337;54.068;12.114;2022-12-29T06:15:40;2.92;;;1.17;;
61471;SDS011;47337;54.068;12.114;2022-12-29T06:18:06;1.60;;;1.20;;
61471;SDS011;47337;54.068;12.114;2022-12-29T06:20:31;1.88;;;1.27;;
61471;SDS011;47337;54.068;12.114;2022-12-29T06:22:57;5.18;;;1.35;;
61471;SDS011;47337;54.068;12.114;2022-12-29T06:25:24;2.47;;;1.23;;
61471;SDS011;47337;54.068;12.114;2022-12-29T06:27:55;1.30;;;1.10;;
61471;SDS011;47337;54.068;12.114;2022-12-29T06:30:21;1.33;;;1.10;;
61471;SDS011;47337;54.068;12.114;2022-12-29T06:32:46;1.45;;;1.10;;
61471;SDS011;47337;54.068;12.114;2022-12-29T06:35:14;3.78;;;1.35;;
61471;SDS011;47337;54.068;12.114;2022-12-29T06:37:40;2.25;;;1.55;;
61471;SDS011;47337;54.068;12.114;2022-12-29T06:40:05;2.50;;;1.40;;
61471;SDS011;47337;54.068;12.114;2022-12-29T06:42:31;1.80;;;1.25;;
61471;SDS011;47337;54.068;12.114;2022-12-29T06:44:59;2.60;;;1.30;;
61471;SDS011;47337;54.068;12.114;2022-12-29T06:47:25;2.58;;;1.60;;
61471;SDS011;47337;54.068;12.114;2022-12-29T06:49:53;2.58;;;1.10;;
61471;SDS011;47337;54.068;12.114;2022-12-29T06:52:18;2.03;;;1.52;;
61471;SDS011;47337;54.068;12.114;2022-12-29T06:54:44;2.95;;;1.30;;
61471;SDS011;47337;54.068;12.114;2022-12-29T06:57:09;3.38;;;1.50;;
61471;SDS011;47337;54.068;12.114;2022-12-29T06:59:35;2.85;;;1.60;;
61471;SDS011;47337;54.068;12.114;2022-12-29T07:02:00;2.20;;;1.83;;
61471;SDS011;47337;54.068;12.114;2022-12-29T07:04:27;4.70;;;1.73;;
61471;SDS011;47337;54.068;12.114;2022-12-29T07:06:52;2.25;;;1.65;;
61471;SDS011;47337;54.068;12.114;2022-12-29T07:09:18;1.95;;;1.50;;
61471;SDS011;47337;54.068;12.114;2022-12-29T07:11:43;3.72;;;1.77;;
61471;SDS011;47337;54.068;12.114;2022-12-29T07:14:10;2.63;;;1.58;;
61471;SDS011;47337;54.068;12.114;2022-12-29T07:16:35;2.15;;;1.63;;
61471;SDS011;47337;54.068;12.114;2022-12-29T07:19:02;2.22;;;1.67;;
61471;SDS011;47337;54.068;12.114;2022-12-29T07:21:28;1.63;;;1.20;;
61471;SDS011;47337;54.068;12.114;2022-12-29T07:23:53;2.33;;;1.20;;
61471;SDS011;47337;54.068;12.114;2022-12-29T07:26:19;1.83;;;1.35;;
61471;SDS011;47337;54.068;12.114;2022-12-29T07:28:45;3.05;;;1.70;;
61471;SDS011;47337;54.068;12.114;2022-12-29T07:31:14;1.65;;;1.42;;
61471;SDS011;47337;54.068;12.114;2022-12-29T07:33:41;2.10;;;1.65;;
61471;SDS011;47337;54.068;12.114;2022-12-29T07:36:08;1.88;;;1.48;;
61471;SDS011;47337;54.068;12.114;2022-12-29T07:38:36;3.72;;;1.35;;
61471;SDS011;47337;54.068;12.114;2022-12-29T07:41:01;3.08;;;1.80;;
61471;SDS011;47337;54.068;12.114;2022-12-29T07:43:31;2.20;;;1.30;;
61471;SDS011;47337;54.068;12.114;2022-12-29T07:45:56;2.47;;;1.42;;
61471;SDS011;47337;54.068;12.114;2022-12-29T07:48:22;2.28;;;1.30;;
61471;SDS011;47337;54.068;12.114;2022-12-29T07:50:49;2.00;;;1.23;;
61471;SDS011;47337;54.068;12.114;2022-12-29T07:53:15;2.20;;;1.40;;
61471;SDS011;47337;54.068;12.114;2022-12-29T07:55:40;2.97;;;1.40;;
61471;SDS011;47337;54.068;12.114;2022-12-29T07:58:06;1.95;;;1.20;;
61471;SDS011;47337;54.068;12.114;2022-12-29T08:00:32;2.95;;;1.67;;
61471;SDS011;47337;54.068;12.114;2022-12-29T08:03:00;2.50;;;1.30;;
61471;SDS011;47337;54.068;12.114;2022-12-29T08:05:25;2.97;;;1.80;;
61471;SDS011;47337;54.068;12.114;2022-12-29T08:07:53;3.75;;;1.52;;
61471;SDS011;47337;54.068;12.114;2022-12-29T08:10:18;1.75;;;1.20;;
61471;SDS011;47337;54.068;12.114;2022-12-29T08:12:44;1.58;;;1.20;;
61471;SDS011;47337;54.068;12.114;2022-12-29T08:15:09;3.08;;;1.30;;
61471;SDS011;47337;54.068;12.114;2022-12-29T08:17:36;3.33;;;1.67;;
61471;SDS011;47337;54.068;12.114;2022-12-29T08:20:05;2.17;;;1.33;;
61471;SDS011;47337;54.068;12.114;2022-12-29T08:22:31;2.40;;;1.20;;
61471;SDS011;47337;54.068;12.114;2022-12-29T08:24:56;3.65;;;1.13;;
61471;SDS011;47337;54.068;12.114;2022-12-29T08:27:24;1.92;;;1.50;;
61471;SDS011;47337;54.068;12.114;2022-12-29T08:29:51;1.77;;;1.20;;
61471;SDS011;47337;54.068;12.114;2022-12-29T08:32:18;2.35;;;1.00;;
61471;SDS011;47337;54.068;12.114;2022-12-29T08:34:46;1.80;;;1.23;;
61471;SDS011;47337;54.068;12.114;2022-12-29T08:37:11;1.60;;;1.10;;
61471;SDS011;47337;54.068;12.114;2022-12-29T08:39:37;3.50;;;1.15;;
61471;SDS011;47337;54.068;12.114;2022-12-29T08:42:02;1.10;;;0.90;;
61471;SDS011;47337;54.068;12.114;2022-12-29T08:44:31;1.45;;;1.02;;
61471;SDS011;47337;54.068;12.114;2022-12-29T08:46:56;1.15;;;0.90;;
61471;SDS011;47337;54.068;12.114;2022-12-29T08:49:21;1.20;;;1.00;;
61471;SDS011;47337;54.068;12.114;2022-12-29T08:51:47;1.00;;;0.90;;
61471;SDS011;47337;54.068;12.114;2022-12-29T08:54:12;1.63;;;1.17;;
61471;SDS011;47337;54.068;12.114;2022-12-29T08:56:37;1.40;;;1.20;;
61471;SDS011;47337;54.068;12.114;2022-12-29T08:59:03;2.58;;;1.40;;
61471;SDS011;47337;54.068;12.114;2022-12-29T09:01:33;1.40;;;1.30;;
61471;SDS011;47337;54.068;12.114;2022-12-29T09:04:03;2.17;;;1.08;;
61471;SDS011;47337;54.068;12.114;2022-12-29T09:06:28;1.98;;;1.38;;
61471;SDS011;47337;54.068;12.114;2022-12-29T09:08:56;3.42;;;1.30;;
61471;SDS011;47337;54.068;12.114;2022-12-29T09:11:22;1.38;;;1.00;;
61471;SDS011;47337;54.068;12.114;2022-12-29T09:13:49;1.58;;;1.00;;
61471;SDS011;47337;54.068;12.114;2022-12-29T09:16:21;3.03;;;1.10;;
61471;SDS011;47337;54.068;12.114;2022-12-29T09:18:50;3.10;;;1.45;;
61471;SDS011;47337;54.068;12.114;2022-12-29T09:21:15;2.67;;;1.10;;
61471;SDS011;47337;54.068;12.114;2022-12-29T09:23:42;0.93;;;0.80;;
61471;SDS011;47337;54.068;12.114;2022-12-29T09:26:07;2.83;;;1.23;;
61471;SDS011;47337;54.068;12.114;2022-12-29T09:28:33;1.40;;;0.90;;
61471;SDS011;47337;54.068;12.114;2022-12-29T09:30:59;3.20;;;1.30;;
61471;SDS011;47337;54.068;12.114;2022-12-29T09:33:25;3.00;;;1.10;;
61471;SDS011;47337;54.068;12.114;2022-12-29T09:35:54;0.98;;;0.75;;
61471;SDS011;47337;54.068;12.114;2022-12-29T09:38:21;1.60;;;0.93;;
61471;SDS011;47337;54.068;12.114;2022-12-29T09:40:54;2.42;;;0.73;;
61471;SDS011;47337;54.068;12.114;2022-12-29T09:52:13;1.30;;;0.75;;
61471;SDS011;47337;54.068;12.114;2022-12-29T09:57:38;2.60;;;0.80;;
61471;SDS011;47337;54.068;12.114;2022-12-29T10:02:46;1.20;;;0.90;;
61471;SDS011;47337;54.068;12.114;2022-12-29T10:10:27;1.13;;;0.60;;
61471;SDS011;47337;54.068;12.114;2022-12-29T10:13:13;1.33;;;0.50;;
61471;SDS011;47337;54.068;12.114;2022-12-29T10:23:53;1.30;;;0.75;;
61471;SDS011;47337;54.068;12.114;2022-12-29T10:26:21;1.42;;;0.60;;
61471;SDS011;47337;54.068;12.114;2022-12-29T10:29:35;1.38;;;0.70;;
61471;SDS011;47337;54.068;12.114;2022-12-29T10:31:54;1.13;;;0.50;;
61471;SDS011;47337;54.068;12.114;2022-12-29T10:34:31;1.58;;;0.60;;
61471;SDS011;47337;54.068;12.114;2022-12-29T10:37:08;2.50;;;0.60;;
61471;SDS011;47337;54.068;12.114;2022-12-29T10:39:49;0.60;;;0.60;;
61471;SDS011;47337;54.068;12.114;2022-12-29T10:42:27;0.95;;;0.55;;
61471;SDS011;47337;54.068;12.114;2022-12-29T10:45:01;1.15;;;0.40;;
61471;SDS011;47337;54.068;12.114;2022-12-29T10:47:32;1.52;;;0.60;;
61471;SDS011;47337;54.068;12.114;2022-12-29T10:50:03;1.48;;;0.70;;
61471;SDS011;47337;54.068;12.114;2022-12-29T10:52:32;0.50;;;0.30;;
61471;SDS011;47337;54.068;12.114;2022-12-29T10:55:05;1.55;;;0.55;;
61471;SDS011;47337;54.068;12.114;2022-12-29T10:57:39;0.95;;;0.40;;
61471;SDS011;47337;54.068;12.114;2022-12-29T11:00:16;1.98;;;0.40;;
61471;SDS011;47337;54.068;12.114;2022-12-29T11:08:26;2.03;;;0.30;;
61471;SDS011;47337;54.068;12.114;2022-12-29T11:11:02;0.70;;;0.30;;
61471;SDS011;47337;54.068;12.114;2022-12-29T11:13:31;2.40;;;0.40;;
61471;SDS011;47337;54.068;12.114;2022-12-29T11:16:00;0.90;;;0.50;;
61471;SDS011;47337;54.068;12.114;2022-12-29T11:18:35;1.42;;;0.43;;
61471;SDS011;47337;54.068;12.114;2022-12-29T11:21:25;0.43;;;0.30;;
61471;SDS011;47337;54.068;12.114;2022-12-29T11:24:05;1.65;;;0.38;;
61471;SDS011;47337;54.068;12.114;2022-12-29T11:26:45;1.35;;;0.45;;
61471;SDS011;47337;54.068;12.114;2022-12-29T11:34:34;1.33;;;0.50;;
61471;SDS011;47337;54.068;12.114;2022-12-29T11:37:02;1.48;;;0.40;;
61471;SDS011;47337;54.068;12.114;2022-12-29T11:42:04;5.53;;;0.77;;
61471;SDS011;47337;54.068;12.114;2022-12-29T11:44:37;2.83;;;0.40;;
61471;SDS011;47337;54.068;12.114;2022-12-29T11:47:12;1.25;;;0.50;;
61471;SDS011;47337;54.068;12.114;2022-12-29T11:49:54;2.17;;;0.82;;
61471;SDS011;47337;54.068;12.114;2022-12-29T11:52:24;1.90;;;0.55;;
61471;SDS011;47337;54.068;12.114;2022-12-29T11:54:53;2.05;;;0.68;;
61471;SDS011;47337;54.068;12.114;2022-12-29T11:57:20;3.28;;;0.73;;
61471;SDS011;47337;54.068;12.114;2022-12-29T12:04:45;2.05;;;0.65;;
61471;SDS011;47337;54.068;12.114;2022-12-29T12:07:12;1.00;;;0.50;;
61471;SDS011;47337;54.068;12.114;2022-12-29T12:09:58;2.72;;;0.52;;
61471;SDS011;47337;54.068;12.114;2022-12-29T12:12:43;1.73;;;0.50;;
61471;SDS011;47337;54.068;12.114;2022-12-29T12:15:25;5.40;;;1.02;;
61471;SDS011;47337;54.068;12.114;2022-12-29T12:18:08;2.90;;;0.88;;
61471;SDS011;47337;54.068;12.114;2022-12-29T12:23:20;0.88;;;0.70;;
61471;SDS011;47337;54.068;12.114;2022-12-29T12:34:11;2.17;;;0.60;;
61471;SDS011;47337;54.068;12.114;2022-12-29T12:56:15;3.03;;;0.80;;
61471;SDS011;47337;54.068;12.114;2022-12-29T12:59:22;3.83;;;0.73;;
61471;SDS011;47337;54.068;12.114;2022-12-29T13:18:33;2.97;;;0.65;;
61471;SDS011;47337;54.068;12.114;2022-12-29T13:21:10;2.72;;;1.00;;
61471;SDS011;47337;54.068;12.114;2022-12-29T13:29:30;1.40;;;0.50;;
61471;SDS011;47337;54.068;12.114;2022-12-29T13:37:04;2.10;;;0.70;;
61471;SDS011;47337;54.068;12.114;2022-12-29T13:42:14;3.42;;;0.65;;
61471;SDS011;47337;54.068;12.114;2022-12-29T13:44:45;3.85;;;0.60;;
61471;SDS011;47337;54.068;12.114;2022-12-29T13:47:31;4.38;;;0.98;;
61471;SDS011;47337;54.068;12.114;2022-12-29T13:50:02;1.45;;;0.35;;
61471;SDS011;47337;54.068;12.114;2022-12-29T13:55:23;2.20;;;0.60;;
61471;SDS011;47337;54.068;12.114;2022-12-29T14:09:05;3.88;;;0.85;;
61471;SDS011;47337;54.068;12.114;2022-12-29T14:11:54;7.03;;;0.80;;
61471;SDS011;47337;54.068;12.114;2022-12-29T14:14:23;1.70;;;0.68;;
61471;SDS011;47337;54.068;12.114;2022-12-29T14:16:52;2.13;;;0.75;;
61471;SDS011;47337;54.068;12.114;2022-12-29T14:21:58;4.05;;;0.80;;
61471;SDS011;47337;54.068;12.114;2022-12-29T14:34:54;4.05;;;0.70;;
61471;SDS011;47337;54.068;12.114;2022-12-29T14:40:14;3.90;;;0.88;;
61471;SDS011;47337;54.068;12.114;2022-12-29T14:42:43;1.48;;;0.63;;
61471;SDS011;47337;54.068;12.114;2022-12-29T14:47:49;3.55;;;0.90;;
61471;SDS011;47337;54.068;12.114;2022-12-29T14:50:23;3.90;;;0.90;;
61471;SDS011;47337;54.068;12.114;2022-12-29T14:52:58;1.55;;;0.45;;
61471;SDS011;47337;54.068;12.114;2022-12-29T14:58:14;5.60;;;0.98;;
61471;SDS011;47337;54.068;12.114;2022-12-29T15:00:43;3.15;;;0.70;;
61471;SDS011;47337;54.068;12.114;2022-12-29T15:03:20;4.05;;;0.93;;
61471;SDS011;47337;54.068;12.114;2022-12-29T15:05:51;1.25;;;0.45;;
61471;SDS011;47337;54.068;12.114;2022-12-29T15:08:49;3.13;;;0.82;;
61471;SDS011;47337;54.068;12.114;2022-12-29T15:16:54;8.82;;;0.80;;
61471;SDS011;47337;54.068;12.114;2022-12-29T15:19:23;3.22;;;0.82;;
61471;SDS011;47337;54.068;12.114;2022-12-29T15:21:53;6.00;;;1.25;;
61471;SDS011;47337;54.068;12.114;2022-12-29T15:24:19;1.98;;;0.80;;
61471;SDS011;47337;54.068;12.114;2022-12-29T15:26:51;2.10;;;0.50;;
61471;SDS011;47337;54.068;12.114;2022-12-29T15:34:49;5.85;;;0.85;;
61471;SDS011;47337;54.068;12.114;2022-12-29T15:37:32;6.15;;;1.15;;
61471;SDS011;47337;54.068;12.114;2022-12-29T15:40:00;3.70;;;0.90;;
61471;SDS011;47337;54.068;12.114;2022-12-29T15:44:57;3.47;;;1.10;;
61471;SDS011;47337;54.068;12.114;2022-12-29T15:47:24;2.58;;;0.80;;
61471;SDS011;47337;54.068;12.114;2022-12-29T15:49:59;4.20;;;1.00;;
61471;SDS011;47337;54.068;12.114;2022-12-29T15:52:30;8.20;;;1.20;;
61471;SDS011;47337;54.068;12.114;2022-12-29T15:54:58;6.57;;;1.05;;
61471;SDS011;47337;54.068;12.114;2022-12-29T15:57:26;4.22;;;0.77;;
61471;SDS011;47337;54.068;12.114;2022-12-29T15:59:58;1.33;;;0.70;;
61471;SDS011;47337;54.068;12.114;2022-12-29T16:02:25;3.58;;;0.93;;
61471;SDS011;47337;54.068;12.114;2022-12-29T16:04:53;3.08;;;1.00;;
61471;SDS011;47337;54.068;12.114;2022-12-29T16:07:29;2.47;;;0.68;;
61471;SDS011;47337;54.068;12.114;2022-12-29T16:09:58;4.68;;;0.90;;
61471;SDS011;47337;54.068;12.114;2022-12-29T16:12:32;2.72;;;1.08;;
61471;SDS011;47337;54.068;12.114;2022-12-29T16:15:05;4.60;;;1.00;;
61471;SDS011;47337;54.068;12.114;2022-12-29T16:17:42;3.28;;;0.75;;
61471;SDS011;47337;54.068;12.114;2022-12-29T16:22:46;3.38;;;1.13;;
61471;SDS011;47337;54.068;12.114;2022-12-29T16:27:50;9.52;;;1.33;;
61471;SDS011;47337;54.068;12.114;2022-12-29T16:32:50;3.95;;;2.10;;
61471;SDS011;47337;54.068;12.114;2022-12-29T16:35:24;4.43;;;1.75;;
61471;SDS011;47337;54.068;12.114;2022-12-29T16:40:37;1.98;;;1.17;;
61471;SDS011;47337;54.068;12.114;2022-12-29T16:43:04;6.80;;;1.70;;
61471;SDS011;47337;54.068;12.114;2022-12-29T16:48:10;2.03;;;1.00;;
61471;SDS011;47337;54.068;12.114;2022-12-29T16:50:41;6.43;;;1.25;;
61471;SDS011;47337;54.068;12.114;2022-12-29T16:55:50;3.80;;;1.27;;
61471;SDS011;47337;54.068;12.114;2022-12-29T16:58:18;2.78;;;0.82;;
61471;SDS011;47337;54.068;12.114;2022-12-29T17:00:50;6.38;;;1.42;;
61471;SDS011;47337;54.068;12.114;2022-12-29T17:03:19;4.18;;;1.40;;
61471;SDS011;47337;54.068;12.114;2022-12-29T17:05:44;5.32;;;1.35;;
61471;SDS011;47337;54.068;12.114;2022-12-29T17:08:16;3.92;;;1.08;;
61471;SDS011;47337;54.068;12.114;2022-12-29T17:10:50;8.82;;;1.17;;
61471;SDS011;47337;54.068;12.114;2022-12-29T17:13:37;2.35;;;1.00;;
61471;SDS011;47337;54.068;12.114;2022-12-29T17:16:06;4.10;;;1.08;;
61471;SDS011;47337;54.068;12.114;2022-12-29T17:21:02;5.25;;;1.30;;
61471;SDS011;47337;54.068;12.114;2022-12-29T17:23:27;2.97;;;0.80;;
61471;SDS011;47337;54.068;12.114;2022-12-29T17:25:55;3.83;;;1.42;;
61471;SDS011;47337;54.068;12.114;2022-12-29T17:28:22;4.55;;;1.20;;
61471;SDS011;47337;54.068;12.114;2022-12-29T17:30:49;8.63;;;1.10;;
61471;SDS011;47337;54.068;12.114;2022-12-29T17:33:17;9.95;;;1.63;;
61471;SDS011;47337;54.068;12.114;2022-12-29T17:35:44;6.75;;;1.58;;
61471;SDS011;47337;54.068;12.114;2022-12-29T17:40:42;9.30;;;1.48;;
61471;SDS011;47337;54.068;12.114;2022-12-29T17:43:08;8.40;;;1.65;;
61471;SDS011;47337;54.068;12.114;2022-12-29T17:45:37;6.28;;;1.77;;
61471;SDS011;47337;54.068;12.114;2022-12-29T17:48:04;7.70;;;3.60;;
61471;SDS011;47337;54.068;12.114;2022-12-29T17:50:36;9.25;;;4.53;;
61471;SDS011;47337;54.068;12.114;2022-12-29T17:53:03;10.80;;;2.05;;
61471;SDS011;47337;54.068;12.114;2022-12-29T17:55:30;10.43;;;2.00;;
61471;SDS011;47337;54.068;12.114;2022-12-29T17:57:58;8.30;;;2.35;;
61471;SDS011;47337;54.068;12.114;2022-12-29T18:00:25;7.68;;;1.90;;
61471;SDS011;47337;54.068;12.114;2022-12-29T18:02:55;3.95;;;2.10;;
61471;SDS011;47337;54.068;12.114;2022-12-29T18:07:53;3.55;;;1.33;;
61471;SDS011;47337;54.068;12.114;2022-12-29T18:10:23;8.02;;;1.50;;
61471;SDS011;47337;54.068;12.114;2022-12-29T18:12:51;5.32;;;1.92;;
61471;SDS011;47337;54.068;12.114;2022-12-29T18:15:20;4.68;;;1.45;;
61471;SDS011;47337;54.068;12.114;2022-12-29T18:17:47;6.07;;;1.90;;